This is the latest recevied weather packets stored in our database for station/object KY4EF. If no packets are shown the sender has not sent any weather packets the latest 10 day(s).
| Time | Temp. | Humidity | Pressure | Rain* | Wind** | Luminosity | Snow |
|---|---|---|---|---|---|---|---|
| 1778008103 | 25.56° C | 33% | 1012.8 hPa | 0 mm | - | 563 W/m² | - |
| 1778007799 | 26.67° C | 33% | 1013 hPa | 0 mm | - | 521 W/m² | - |
| 1778007495 | 26.11° C | 36% | 1012.9 hPa | 0 mm | - | 566 W/m² | - |
| 1778007191 | 26.11° C | 34% | 1013.1 hPa | 0 mm | - | 593 W/m² | - |
| 1778006887 | 28.33° C | 34% | 1013.2 hPa | 0 mm | - | 553 W/m² | - |
| 1778006585 | 26.67° C | 37% | 1013.2 hPa | 0 mm | - | 695 W/m² | - |
| 1778006281 | 26.11° C | 38% | 1013.4 hPa | 0 mm | - | 733 W/m² | - |
| 1778005979 | 26.11° C | 36% | 1013.4 hPa | 0 mm | - | 624 W/m² | - |
| 1778005675 | 25.56° C | 38% | 1013.4 hPa | 0 mm | - | 425 W/m² | - |
| 1778005372 | 26.11° C | 41% | 1013.4 hPa | 0 mm | - | 521 W/m² | - |
| 1778005068 | 25.56° C | 40% | 1013.5 hPa | 0 mm | - | 433 W/m² | - |
| 1778004766 | 26.11° C | 37% | 1013.8 hPa | 0 mm | - | 514 W/m² | - |
| 1778004462 | 26.11° C | 38% | 1013.9 hPa | 0 mm | - | 519 W/m² | - |
| 1778004159 | 25.56° C | 40% | 1014 hPa | 0 mm | - | 491 W/m² | - |
| 1778003855 | 26.11° C | 38% | 1014 hPa | 0 mm | - | 359 W/m² | - |
| 1778003552 | 25° C | 39% | 1014.1 hPa | 0 mm | - | 301 W/m² | - |
| 1778003249 | 25.56° C | 38% | 1013.8 hPa | 0 mm | - | 536 W/m² | - |
| 1778002946 | 25° C | 40% | 1014 hPa | 0 mm | - | 484 W/m² | - |
| 1778002641 | 26.11° C | 39% | 1013.9 hPa | 0 mm | - | 655 W/m² | - |
| 1778002339 | 24.44° C | 40% | 1013.9 hPa | 0 mm | - | 355 W/m² | - |
| 1778002036 | 23.89° C | 41% | 1014 hPa | 0 mm | - | 655 W/m² | - |
| 1778001732 | 25.56° C | 37% | 1014 hPa | 0 mm | - | 495 W/m² | - |
| 1778001427 | 26.67° C | 38% | 1014.2 hPa | 0 mm | - | 547 W/m² | - |
| 1778001124 | 26.11° C | 40% | 1014.4 hPa | 0 mm | - | 561 W/m² | - |
| 1778000821 | 26.67° C | 37% | 1014.8 hPa | 0 mm | - | 537 W/m² | - |
* Rain latest hour (hover to see other rain measurements)
** Current wind speed in m/s (hover to see current wind gust speed)